Disclaimer

Please do not use the information listed here in-flight or in-navigation, as they are not provided to us by the airports but are provided by volunteers, so they might be outdated.

Search


Regions


Airport information page

No radio frequency information is available.

Airport informations:
Latitude: 16° 40' 33.70" N
Longitude: 101° 11' 42.39" E
Elevation: 450 feet - 137 meters
Operating hours: From sunrise to sunset (SR-SS)
Operating agency: Civil government, landing fees and diplomatic clearance may be required
Timezone: UTC+7
Fuel: N/A

Runway information:
18/36 - 6890 x 148 feet< - >2100 x 45 meters

Recent METARs:
VTPB 170900Z 08005KT 020V110 9999 SCT030 32/15 Q1010 NOSIG
VTPB 171000Z 09005KT 050V130 9999 SCT030 31/16 Q1011 NOSIG
VTPB 171000Z 09005KT 050V130 9999 SCT030 31/16 Q1011 NOSIG

Airport on the map: